Time;durP1;ratioP1;P1;durP2;ratioP2;P2;SDS_P1;SDS_P2;PMS_P1;PMS_P2;Temp;Humidity;BMP_temperature;BMP_pressure;BME280_temperature;BME280_humidity;BME280_pressure;Samples;Min_cycle;Max_cycle;Signal;HPM_P1;HPM_P2
2022/01/09 00:02:07;;;;;;;1.95;1.25;;;19.70;75.80;;;;;;4932787;28;95416;-62
2022/01/09 00:04:37;;;;;;;1.73;1.10;;;19.70;75.80;;;;;;4942543;28;97958;-64
2022/01/09 00:07:08;;;;;;;1.10;1.00;;;19.70;75.80;;;;;;4946668;28;95969;-64
2022/01/09 00:09:42;;;;;;;1.75;1.00;;;19.70;75.80;;;;;;4949741;28;95250;-64
2022/01/09 00:12:13;;;;;;;1.27;0.80;;;19.70;75.80;;;;;;4950695;28;95372;-64
2022/01/09 00:14:44;;;;;;;;;;;19.80;75.80;;;;;;4948685;28;96140;-65
2022/01/09 00:17:14;;;;;;;2.40;1.02;;;19.80;75.80;;;;;;4942919;28;95911;-64
2022/01/09 00:19:45;;;;;;;0.98;0.85;;;19.80;75.80;;;;;;4948964;28;95772;-64
2022/01/09 00:22:23;;;;;;;0.95;0.95;;;19.80;75.80;;;;;;4949164;28;95329;-64
2022/01/09 00:24:55;;;;;;;1.85;0.98;;;19.80;75.90;;;;;;4946395;28;96076;-63
2022/01/09 00:27:27;;;;;;;1.05;0.82;;;19.80;75.80;;;;;;4948640;28;95321;-64
2022/01/09 00:29:58;;;;;;;0.90;0.88;;;19.80;75.80;;;;;;4947216;28;95775;-64
2022/01/09 00:32:28;;;;;;;1.25;1.05;;;19.90;75.80;;;;;;4935603;28;98303;-63
2022/01/09 00:35:01;;;;;;;0.95;0.95;;;19.80;75.80;;;;;;4960871;28;96107;-64
2022/01/09 00:37:32;;;;;;;0.80;0.80;;;19.80;75.70;;;;;;4948696;28;95788;-63
2022/01/09 00:40:03;;;;;;;;;;;19.90;75.80;;;;;;4980772;28;97694;-65
2022/01/09 00:42:34;;;;;;;0.80;0.80;;;19.90;75.80;;;;;;4948325;28;95905;-64
2022/01/09 00:45:05;;;;;;;1.30;1.00;;;19.90;75.80;;;;;;4948602;28;96016;-64
2022/01/09 00:47:35;;;;;;;1.70;0.88;;;19.90;74.30;;;;;;4939332;28;95797;-63
2022/01/09 00:50:09;;;;;;;2.22;0.75;;;19.90;75.70;;;;;;4948042;28;95605;-64
2022/01/09 00:52:41;;;;;;;1.15;1.00;;;19.90;75.80;;;;;;4946514;28;96200;-64
2022/01/09 00:55:12;;;;;;;1.75;0.95;;;19.90;75.70;;;;;;4946969;28;96040;-64
2022/01/09 00:57:43;;;;;;;;;;;20.00;75.80;;;;;;4947724;28;95558;-64
2022/01/09 01:00:15;;;;;;;1.30;1.00;;;19.90;75.70;;;;;;4940733;28;95600;-63
2022/01/09 01:02:45;;;;;;;0.73;0.73;;;20.00;75.70;;;;;;4936215;28;96030;-64
2022/01/09 01:05:18;;;;;;;1.35;0.90;;;20.00;75.70;;;;;;4944719;28;96198;-63
2022/01/09 01:07:48;;;;;;;1.67;1.02;;;20.00;75.70;;;;;;4944143;28;95471;-64
2022/01/09 01:10:19;;;;;;;;;;;20.00;75.60;;;;;;4946446;28;95642;-63
2022/01/09 01:12:50;;;;;;;1.00;1.00;;;20.10;75.70;;;;;;4949193;28;95356;-64
2022/01/09 01:15:21;;;;;;;1.20;1.10;;;20.10;75.70;;;;;;4940118;28;96513;-64
2022/01/09 01:17:53;;;;;;;1.05;1.05;;;20.10;75.70;;;;;;4947318;28;96145;-62
2022/01/09 01:20:25;;;;;;;1.23;1.13;;;20.10;75.70;;;;;;4948168;28;95651;-64
2022/01/09 01:22:58;;;;;;;1.88;0.90;;;20.20;75.60;;;;;;4948567;28;95822;-63
2022/01/09 01:25:30;;;;;;;1.70;1.30;;;20.20;75.70;;;;;;4946072;28;96986;-64
2022/01/09 01:28:01;;;;;;;1.60;1.20;;;20.20;75.60;;;;;;4945627;28;95794;-62
2022/01/09 01:30:31;;;;;;;1.40;1.27;;;20.20;75.40;;;;;;4940515;28;95648;-64
2022/01/09 01:33:02;;;;;;;1.55;1.38;;;20.20;75.40;;;;;;4946331;28;96032;-63
2022/01/09 01:35:34;;;;;;;1.45;1.17;;;20.30;75.40;;;;;;4949761;28;96802;-64
2022/01/09 01:38:04;;;;;;;;;;;20.30;75.40;;;;;;4964128;28;96326;-65
2022/01/09 01:40:36;;;;;;;1.83;1.37;;;20.30;75.50;;;;;;4946752;28;95713;-63
2022/01/09 01:43:06;;;;;;;1.90;1.20;;;20.40;75.60;;;;;;4948045;28;98998;-64
2022/01/09 01:45:37;;;;;;;2.78;1.58;;;20.30;75.60;;;;;;4934791;28;97020;-60
2022/01/09 01:48:09;;;;;;;2.45;1.58;;;20.30;75.70;;;;;;4947770;28;95944;-62
2022/01/09 01:50:42;;;;;;;1.40;1.27;;;20.30;75.70;;;;;;4944322;28;95723;-63
2022/01/09 01:53:18;;;;;;;1.88;1.08;;;20.40;76.40;;;;;;4937095;28;98339;-58
2022/01/09 01:55:55;;;;;;;1.45;1.35;;;20.40;75.90;;;;;;4940939;28;96858;-60
2022/01/09 01:58:27;;;;;;;1.52;1.42;;;20.50;75.90;;;;;;4945576;28;95588;-60
2022/01/09 02:00:58;;;;;;;1.60;1.50;;;20.70;75.90;;;;;;4934522;28;98324;-61
2022/01/09 02:03:28;;;;;;;;;;;21.00;75.60;;;;;;4934323;28;96060;-58
2022/01/09 02:05:59;;;;;;;1.27;1.17;;;21.20;75.20;;;;;;4946904;28;96401;-62
2022/01/09 02:08:31;;;;;;;2.23;1.00;;;21.40;74.80;;;;;;4945906;28;95670;-60
2022/01/09 02:11:03;;;;;;;1.00;0.90;;;21.60;74.40;;;;;;4945863;28;95768;-60
2022/01/09 02:13:34;;;;;;;1.73;1.30;;;21.70;74.10;;;;;;4946898;28;96498;-61
2022/01/09 02:16:05;;;;;;;1.33;1.23;;;21.90;73.70;;;;;;4937932;28;98436;-60
2022/01/09 02:18:37;;;;;;;1.10;1.10;;;22.10;73.50;;;;;;4945424;28;96122;-60
2022/01/09 02:21:10;;;;;;;;;;;22.20;73.00;;;;;;4947547;28;95763;-60
2022/01/09 02:23:45;;;;;;;1.70;1.25;;;22.40;72.70;;;;;;4948623;28;95836;-59
2022/01/09 02:26:21;;;;;;;1.17;1.10;;;22.50;72.40;;;;;;4944811;28;96091;-60
2022/01/09 02:28:51;;;;;;;0.90;0.90;;;22.60;72.00;;;;;;4946233;28;96901;-60
2022/01/09 02:31:21;;;;;;;1.30;1.17;;;22.70;71.90;;;;;;4938830;28;98723;-59
2022/01/09 02:33:51;;;;;;;0.95;0.93;;;22.80;71.70;;;;;;4946124;28;95867;-61
2022/01/09 02:36:21;;;;;;;1.42;1.27;;;22.90;71.60;;;;;;4945988;28;96392;-60
2022/01/09 02:38:51;;;;;;;1.15;1.05;;;23.10;71.30;;;;;;4945168;28;95914;-60
2022/01/09 02:41:24;;;;;;;1.20;1.10;;;23.10;71.00;;;;;;4944217;28;95764;-59
2022/01/09 02:43:54;;;;;;;1.10;1.10;;;23.20;70.90;;;;;;4945403;28;95653;-58
2022/01/09 02:46:42;;;;;;;0.77;0.75;;;23.40;70.80;;;;;;4937931;28;96387;-60
2022/01/09 02:49:13;;;;;;;1.05;1.05;;;23.50;70.50;;;;;;4950107;28;96903;-60
2022/01/09 02:51:46;;;;;;;1.00;1.00;;;23.50;70.20;;;;;;4943172;28;96076;-59
2022/01/09 02:57:08;;;;;;;0.97;0.97;;;23.80;70.00;;;;;;4945350;28;96392;-59
2022/01/09 02:59:39;;;;;;;1.33;0.93;;;23.90;69.80;;;;;;4946474;28;96074;-61
2022/01/09 03:02:09;;;;;;;1.00;1.00;;;23.90;69.60;;;;;;4914628;28;95805;-60
2022/01/09 03:04:40;;;;;;;1.00;1.00;;;24.00;69.40;;;;;;4918997;28;96243;-61
2022/01/09 03:07:14;;;;;;;1.10;1.02;;;24.10;69.30;;;;;;4923890;28;95823;-61
2022/01/09 03:09:44;;;;;;;1.00;1.00;;;24.30;69.30;;;;;;4926709;28;96136;-61
2022/01/09 03:12:15;;;;;;;0.85;0.85;;;24.30;69.00;;;;;;4928155;28;96388;-62
2022/01/09 03:14:46;;;;;;;1.02;1.02;;;24.40;68.90;;;;;;4957719;28;95463;-62
2022/01/09 03:17:17;;;;;;;2.17;1.00;;;24.50;68.80;;;;;;4919803;28;96375;-60
2022/01/09 03:19:49;;;;;;;1.10;0.90;;;24.60;68.60;;;;;;4924794;28;96366;-58
2022/01/09 03:22:21;;;;;;;1.20;1.20;;;24.70;68.60;;;;;;4924214;28;96214;-61
2022/01/09 03:24:52;;;;;;;0.75;0.75;;;24.70;68.40;;;;;;4934346;28;95980;-60
2022/01/09 03:27:24;;;;;;;1.40;1.30;;;24.80;68.30;;;;;;4928480;28;95657;-62
2022/01/09 03:29:56;;;;;;;1.05;1.05;;;24.90;68.20;;;;;;4943017;28;96244;-60
2022/01/09 03:32:27;;;;;;;1.27;1.00;;;25.00;68.80;;;;;;4922341;28;95810;-60
2022/01/09 03:34:57;;;;;;;1.00;1.00;;;25.10;68.10;;;;;;4930153;28;95718;-61
2022/01/09 03:37:29;;;;;;;1.40;1.30;;;25.10;67.90;;;;;;4928967;28;96064;-60
2022/01/09 03:40:00;;;;;;;0.88;0.88;;;25.20;67.80;;;;;;4927927;28;97288;-64
2022/01/09 03:42:31;;;;;;;2.08;1.50;;;25.30;67.70;;;;;;4926759;28;95936;-63
2022/01/09 03:45:03;;;;;;;1.70;1.60;;;25.00;66.40;;;;;;4957254;28;96532;-61
2022/01/09 03:47:35;;;;;;;2.33;1.48;;;24.90;66.90;;;;;;4920416;28;96360;-60
2022/01/09 03:50:10;;;;;;;1.80;1.65;;;24.80;67.20;;;;;;4925004;28;96700;-62
2022/01/09 03:52:41;;;;;;;4.22;2.20;;;24.70;67.20;;;;;;4937020;28;95392;-59
2022/01/09 03:55:13;;;;;;;3.10;1.90;;;24.60;67.50;;;;;;4927384;28;96231;-61
2022/01/09 03:57:44;;;;;;;2.80;2.45;;;24.40;67.80;;;;;;4926015;28;96647;-62
2022/01/09 04:00:21;;;;;;;3.28;2.80;;;24.30;68.00;;;;;;4921491;28;95698;-62
2022/01/09 04:02:54;;;;;;;4.35;2.85;;;24.10;67.50;;;;;;4917283;28;96546;-62
2022/01/09 04:05:24;;;;;;;3.20;2.25;;;24.00;68.50;;;;;;4922939;28;95715;-61
2022/01/09 04:07:55;;;;;;;5.50;2.30;;;23.90;68.30;;;;;;4927465;28;95937;-61
2022/01/09 04:10:43;;;;;;;4.22;2.58;;;23.70;68.10;;;;;;4926885;28;95512;-61
2022/01/09 04:13:14;;;;;;;4.30;2.70;;;23.60;67.70;;;;;;4925606;28;95898;-60
2022/01/09 04:15:47;;;;;;;3.25;2.35;;;23.50;67.30;;;;;;4923545;28;98035;-60
2022/01/09 04:18:20;;;;;;;4.10;2.90;;;23.50;67.00;;;;;;4946855;28;96683;-57
2022/01/09 04:20:53;;;;;;;3.47;3.17;;;23.50;66.70;;;;;;4941739;28;95946;-59
2022/01/09 04:23:25;;;;;;;3.13;2.83;;;23.30;65.60;;;;;;4946537;28;98188;-61
2022/01/09 04:25:56;;;;;;;3.70;2.83;;;23.20;65.60;;;;;;4946235;28;97137;-60
2022/01/09 04:28:27;;;;;;;3.97;3.22;;;23.20;65.50;;;;;;4943347;28;96074;-57
2022/01/09 04:30:59;;;;;;;3.45;3.08;;;23.10;65.20;;;;;;4935650;28;98510;-60
2022/01/09 04:33:29;;;;;;;3.47;2.53;;;23.10;64.90;;;;;;4944579;28;95800;-59
2022/01/09 04:36:00;;;;;;;3.85;3.40;;;23.00;64.60;;;;;;4943935;28;96117;-61
2022/01/09 04:38:32;;;;;;;5.28;3.38;;;23.00;64.30;;;;;;4946651;28;95904;-58
2022/01/09 04:41:04;;;;;;;6.75;4.05;;;22.90;64.20;;;;;;4948634;28;96132;-61
2022/01/09 04:43:34;;;;;;;5.88;4.22;;;23.00;64.20;;;;;;4958780;28;96045;-62
2022/01/09 04:46:04;;;;;;;4.10;3.10;;;23.10;63.70;;;;;;4938549;28;97174;-60
2022/01/09 04:48:37;;;;;;;5.95;3.08;;;23.10;63.20;;;;;;4947880;28;96535;-59
2022/01/09 04:51:12;;;;;;;4.93;3.13;;;23.10;63.10;;;;;;4945966;28;96121;-60
2022/01/09 04:53:44;;;;;;;4.10;3.70;;;23.20;63.90;;;;;;4946479;28;95429;-60
2022/01/09 04:56:17;;;;;;;3.33;3.03;;;23.40;64.10;;;;;;4954694;28;96249;-59
2022/01/09 04:58:49;;;;;;;4.47;3.47;;;23.50;64.10;;;;;;4945175;28;98170;-60
2022/01/09 05:01:20;;;;;;;4.20;3.10;;;23.60;64.20;;;;;;4921659;28;96876;-63
2022/01/09 05:03:50;;;;;;;4.13;3.10;;;23.70;64.20;;;;;;4936548;28;96389;-60
2022/01/09 05:06:21;;;;;;;4.23;3.17;;;23.70;64.30;;;;;;4943481;28;96317;-60
2022/01/09 05:08:52;;;;;;;5.57;3.33;;;23.80;64.40;;;;;;4944316;28;96105;-60
2022/01/09 05:11:23;;;;;;;;;;;23.90;64.60;;;;;;4943102;28;95715;-59
2022/01/09 05:13:55;;;;;;;3.88;3.25;;;23.90;64.50;;;;;;4947486;28;95989;-60
2022/01/09 05:16:26;;;;;;;2.80;2.60;;;23.90;64.60;;;;;;4938276;28;95985;-60
2022/01/09 05:19:04;;;;;;;4.50;2.92;;;24.00;64.70;;;;;;4945263;28;97134;-63
2022/01/09 05:21:36;;;;;;;3.30;2.92;;;24.00;64.80;;;;;;4944570;28;95374;-58
2022/01/09 05:24:08;;;;;;;3.55;2.70;;;24.00;64.90;;;;;;4941449;28;95888;-60
2022/01/09 05:26:38;;;;;;;3.70;2.55;;;24.10;65.00;;;;;;4958991;28;95825;-59
2022/01/09 05:29:09;;;;;;;3.45;2.70;;;24.10;65.00;;;;;;4960830;28;96989;-63
2022/01/09 05:31:40;;;;;;;2.53;2.33;;;24.10;65.00;;;;;;4938346;28;95978;-63
2022/01/09 05:34:11;;;;;;;2.40;2.20;;;24.20;65.00;;;;;;4960777;28;96395;-59
2022/01/09 05:36:42;;;;;;;3.65;2.60;;;24.20;65.10;;;;;;4943491;28;97222;-63
2022/01/09 05:39:13;;;;;;;2.95;2.60;;;24.20;65.10;;;;;;4945239;28;96546;-63
2022/01/09 05:41:45;;;;;;;2.50;2.30;;;24.20;65.10;;;;;;4943492;28;96115;-63
2022/01/09 05:44:17;;;;;;;3.10;2.80;;;24.30;65.10;;;;;;4944771;28;95800;-64
2022/01/09 05:46:48;;;;;;;2.97;2.67;;;24.30;65.10;;;;;;4935655;28;95759;-61
2022/01/09 05:49:20;;;;;;;3.90;2.75;;;24.30;65.10;;;;;;4944994;28;96188;-64
2022/01/09 05:51:52;;;;;;;3.38;2.28;;;24.40;65.10;;;;;;4943403;28;95931;-59
2022/01/09 05:54:24;;;;;;;2.92;2.30;;;24.40;65.10;;;;;;4959713;28;95724;-63
2022/01/09 05:56:57;;;;;;;6.07;2.83;;;24.40;65.10;;;;;;4944824;28;95303;-62
2022/01/09 05:59:27;;;;;;;2.20;2.00;;;24.40;65.10;;;;;;4944594;28;96937;-61
2022/01/09 06:01:57;;;;;;;3.08;2.78;;;24.40;65.00;;;;;;4918517;28;97768;-59
2022/01/09 06:04:28;;;;;;;2.70;2.38;;;24.40;65.10;;;;;;4915142;28;96442;-58
2022/01/09 06:06:59;;;;;;;2.72;2.30;;;24.40;65.00;;;;;;4926878;28;95278;-63
2022/01/09 06:09:30;;;;;;;3.00;2.50;;;24.40;65.00;;;;;;4924835;28;98309;-58
2022/01/09 06:12:01;;;;;;;2.10;2.00;;;24.50;65.00;;;;;;4925818;28;95957;-63
2022/01/09 06:14:33;;;;;;;2.10;2.00;;;24.50;64.90;;;;;;4925130;28;95377;-58
2022/01/09 06:17:03;;;;;;;2.95;2.50;;;24.50;64.90;;;;;;4916900;28;96393;-59
2022/01/09 06:19:33;;;;;;;2.70;2.50;;;24.60;64.90;;;;;;4924917;28;97561;-63
2022/01/09 06:22:05;;;;;;;2.38;2.17;;;24.60;64.80;;;;;;4925473;28;96114;-63
2022/01/09 06:24:38;;;;;;;1.88;1.77;;;24.60;64.80;;;;;;4921588;28;95843;-62
2022/01/09 06:27:09;;;;;;;3.15;2.38;;;24.60;64.80;;;;;;4926539;28;95798;-62
2022/01/09 06:29:40;;;;;;;2.35;2.15;;;24.60;64.80;;;;;;4925129;28;97401;-63
2022/01/09 06:32:11;;;;;;;2.70;2.35;;;24.60;64.70;;;;;;4914569;28;99429;-62
2022/01/09 06:34:42;;;;;;;;;;;24.60;64.60;;;;;;4925884;28;96170;-59
2022/01/09 06:37:13;;;;;;;2.70;2.10;;;24.60;64.60;;;;;;4926921;28;95791;-57
2022/01/09 06:39:44;;;;;;;;;;;24.70;64.60;;;;;;4925400;28;96433;-60
2022/01/09 06:42:14;;;;;;;2.75;2.10;;;24.70;64.50;;;;;;4924666;28;95783;-63
2022/01/09 06:44:44;;;;;;;2.25;2.05;;;24.70;64.50;;;;;;4925280;28;95968;-61
2022/01/09 06:47:14;;;;;;;3.17;2.20;;;24.70;64.40;;;;;;4916921;28;95787;-61
2022/01/09 06:49:46;;;;;;;2.35;2.13;;;24.70;64.40;;;;;;4922456;28;96119;-62
2022/01/09 06:52:17;;;;;;;2.00;1.90;;;24.70;64.30;;;;;;4924074;28;95823;-63
2022/01/09 06:54:49;;;;;;;2.35;2.20;;;24.70;64.30;;;;;;4925148;28;95850;-58
2022/01/09 06:57:21;;;;;;;2.30;2.10;;;24.70;64.20;;;;;;4925802;28;95762;-63
2022/01/09 06:59:52;;;;;;;2.20;1.98;;;24.80;64.20;;;;;;4923846;28;95899;-62
2022/01/09 07:02:24;;;;;;;3.03;2.25;;;24.80;64.10;;;;;;4960061;28;97495;-63
2022/01/09 07:04:54;;;;;;;3.03;2.08;;;24.80;64.10;;;;;;4940471;28;95777;-60
2022/01/09 07:07:26;;;;;;;2.20;2.05;;;24.80;64.10;;;;;;4947383;28;95832;-61
2022/01/09 07:09:58;;;;;;;2.65;2.25;;;24.80;64.00;;;;;;4948023;28;96043;-61
2022/01/09 07:12:28;;;;;;;2.45;2.25;;;24.80;64.00;;;;;;4948264;28;96117;-63
2022/01/09 07:14:59;;;;;;;2.47;2.17;;;24.80;64.00;;;;;;4948492;28;95861;-59
2022/01/09 07:17:29;;;;;;;2.07;1.90;;;24.80;63.90;;;;;;4939482;28;95625;-59
2022/01/09 07:20:00;;;;;;;;;;;24.90;63.90;;;;;;4946310;28;96591;-62
2022/01/09 07:22:31;;;;;;;4.00;1.90;;;24.80;63.80;;;;;;4947404;28;95972;-59
2022/01/09 07:25:05;;;;;;;2.67;2.10;;;24.90;63.70;;;;;;4948219;28;96093;-62
2022/01/09 07:27:35;;;;;;;5.90;2.20;;;24.90;63.70;;;;;;4930372;28;96064;-63
2022/01/09 07:30:06;;;;;;;1.90;1.67;;;24.90;63.70;;;;;;4942758;28;97155;-63
2022/01/09 07:32:40;;;;;;;2.38;1.92;;;24.90;63.70;;;;;;4938773;28;96571;-61
2022/01/09 07:35:13;;;;;;;3.78;2.35;;;24.90;63.60;;;;;;4945574;28;95692;-60
2022/01/09 07:37:43;;;;;;;3.75;2.30;;;24.90;63.60;;;;;;4960432;28;95867;-62
2022/01/09 07:40:15;;;;;;;2.85;2.08;;;24.90;63.60;;;;;;4946622;28;96198;-60
2022/01/09 07:42:48;;;;;;;3.92;1.80;;;24.90;63.50;;;;;;4944243;28;96370;-60
2022/01/09 07:45:25;;;;;;;4.13;2.35;;;24.90;63.50;;;;;;4946313;28;95771;-60
2022/01/09 07:47:58;;;;;;;3.65;2.53;;;24.90;63.50;;;;;;4954290;28;95930;-60
2022/01/09 07:50:31;;;;;;;2.85;2.10;;;24.90;63.40;;;;;;4945908;28;96476;-56
2022/01/09 07:53:03;;;;;;;5.40;2.47;;;24.90;63.60;;;;;;4943901;28;96465;-62
2022/01/09 07:55:35;;;;;;;3.10;2.13;;;24.90;63.30;;;;;;4946026;28;95232;-60
2022/01/09 07:58:05;;;;;;;;;;;24.90;63.40;;;;;;4947067;28;95779;-59
2022/01/09 08:00:36;;;;;;;3.58;2.30;;;24.90;63.30;;;;;;4940990;28;98460;-60
2022/01/09 08:03:07;;;;;;;3.65;2.17;;;24.90;62.30;;;;;;4936086;28;95521;-59
2022/01/09 08:05:37;;;;;;;4.27;1.93;;;24.90;63.20;;;;;;4945380;28;96193;-59
2022/01/09 08:08:07;;;;;;;8.30;2.90;;;24.90;63.30;;;;;;4947272;28;95531;-63
2022/01/09 08:10:38;;;;;;;3.60;2.92;;;24.90;63.20;;;;;;4945483;28;96318;-62
2022/01/09 08:13:09;;;;;;;3.80;2.53;;;24.90;63.20;;;;;;4945930;28;96127;-59
2022/01/09 08:15:41;;;;;;;4.93;2.25;;;24.90;63.20;;;;;;4954936;28;95781;-61
2022/01/09 08:18:14;;;;;;;7.80;2.85;;;24.90;63.50;;;;;;4946048;28;95793;-61
2022/01/09 08:20:46;;;;;;;7.63;2.67;;;24.80;62.90;;;;;;4944339;28;96102;-61
2022/01/09 08:23:17;;;;;;;7.40;2.80;;;24.80;62.90;;;;;;4944474;28;95948;-61
2022/01/09 08:25:50;;;;;;;7.72;3.55;;;24.70;62.90;;;;;;4948575;28;95909;-61
2022/01/09 08:28:20;;;;;;;7.65;2.80;;;24.70;62.90;;;;;;4946103;28;95735;-58
2022/01/09 08:30:49;;;;;;;13.40;3.00;;;24.60;62.90;;;;;;4939541;28;95932;-62
2022/01/09 08:33:24;;;;;;;8.77;3.08;;;24.60;62.90;;;;;;4948515;28;95714;-60
2022/01/09 08:35:55;;;;;;;10.43;3.20;;;24.50;63.20;;;;;;4949975;28;96283;-59
2022/01/09 08:38:27;;;;;;;9.40;3.15;;;24.50;63.30;;;;;;4963651;28;95462;-62
2022/01/09 08:41:00;;;;;;;14.30;3.38;;;24.50;62.70;;;;;;4949800;28;96364;-63
2022/01/09 08:43:35;;;;;;;8.38;3.63;;;24.40;63.30;;;;;;4948345;28;95544;-62
2022/01/09 08:46:09;;;;;;;9.85;3.53;;;24.40;63.40;;;;;;4939991;28;95927;-62
2022/01/09 08:48:40;;;;;;;9.48;3.45;;;24.30;63.10;;;;;;4949345;28;95260;-59
2022/01/09 08:51:12;;;;;;;8.13;2.80;;;24.40;63.50;;;;;;4947580;28;96054;-60
2022/01/09 08:53:50;;;;;;;8.82;3.45;;;24.30;63.50;;;;;;4949284;28;95655;-62
2022/01/09 08:56:24;;;;;;;8.40;3.20;;;24.30;63.60;;;;;;4948131;28;95723;-61
2022/01/09 08:58:57;;;;;;;8.60;3.00;;;24.20;63.70;;;;;;4948463;28;95808;-60
2022/01/09 09:01:45;;;;;;;5.07;2.95;;;24.20;63.70;;;;;;4934097;28;97744;-62
2022/01/09 09:04:17;;;;;;;11.75;3.88;;;24.20;63.80;;;;;;4936405;28;95844;-62
2022/01/09 09:06:49;;;;;;;9.60;3.25;;;24.10;63.70;;;;;;4948453;28;96087;-62
2022/01/09 09:09:21;;;;;;;8.43;3.60;;;24.10;63.70;;;;;;4947126;28;95649;-61
2022/01/09 09:11:51;;;;;;;9.90;3.72;;;24.00;63.60;;;;;;4948426;28;96269;-62
2022/01/09 09:14:25;;;;;;;12.00;4.57;;;24.00;63.80;;;;;;4947246;28;95929;-61
2022/01/09 09:16:55;;;;;;;10.77;4.60;;;24.00;63.90;;;;;;4939219;28;99149;-62
2022/01/09 09:19:26;;;;;;;;;;;24.00;63.60;;;;;;4945564;28;96397;-61
2022/01/09 09:21:57;;;;;;;12.10;4.25;;;23.90;64.00;;;;;;4948358;28;96066;-62
2022/01/09 09:24:28;;;;;;;;;;;23.80;63.90;;;;;;4948382;28;96784;-60
2022/01/09 09:26:59;;;;;;;;;;;23.80;64.10;;;;;;4950616;28;95939;-61
2022/01/09 09:29:31;;;;;;;11.35;3.90;;;23.70;64.00;;;;;;4946673;28;95940;-62
2022/01/09 09:32:02;;;;;;;14.45;4.43;;;23.70;64.10;;;;;;4935439;28;96761;-62
2022/01/09 09:34:33;;;;;;;12.38;4.90;;;23.70;64.20;;;;;;4944939;28;96279;-63
2022/01/09 09:37:04;;;;;;;8.60;3.25;;;23.70;64.20;;;;;;4944920;28;95745;-62
2022/01/09 09:39:36;;;;;;;13.48;4.82;;;23.60;64.30;;;;;;4945389;28;95369;-61
2022/01/09 09:42:06;;;;;;;9.45;3.42;;;23.50;63.70;;;;;;4946056;28;96634;-62
2022/01/09 09:44:37;;;;;;;11.27;4.35;;;23.50;64.50;;;;;;4947504;28;96000;-62
2022/01/09 09:47:08;;;;;;;7.18;3.42;;;23.50;64.50;;;;;;4952705;28;96967;-64
2022/01/09 09:49:41;;;;;;;12.40;4.80;;;23.50;64.60;;;;;;4947072;28;95304;-61
2022/01/09 09:52:18;;;;;;;16.13;4.65;;;23.50;64.80;;;;;;4947458;28;96483;-63
2022/01/09 09:54:52;;;;;;;15.77;4.40;;;23.40;64.70;;;;;;4942926;28;95874;-61
2022/01/09 09:57:24;;;;;;;11.95;4.88;;;23.40;64.80;;;;;;4947786;28;95566;-62
2022/01/09 10:00:12;;;;;;;14.77;5.43;;;23.40;64.80;;;;;;4948508;28;95797;-62
2022/01/09 10:02:48;;;;;;;10.73;4.70;;;23.40;64.90;;;;;;4930224;28;95934;-62
2022/01/09 10:05:22;;;;;;;14.20;5.25;;;23.40;64.80;;;;;;4941165;28;95950;-62
2022/01/09 10:07:58;;;;;;;11.95;5.78;;;23.30;64.90;;;;;;4946594;28;95247;-61
2022/01/09 10:10:32;;;;;;;14.32;6.50;;;23.30;65.10;;;;;;4947722;28;95352;-63
2022/01/09 10:13:22;;;;;;;21.85;6.88;;;23.30;65.10;;;;;;4947774;28;96093;-63
2022/01/09 10:15:59;;;;;;;15.60;6.73;;;23.20;65.00;;;;;;4936323;28;98269;-62
2022/01/09 10:18:46;;;;;;;13.85;6.03;;;23.20;65.00;;;;;;4946041;28;97231;-62
2022/01/09 10:21:23;;;;;;;16.92;7.32;;;23.20;65.20;;;;;;4947202;28;95771;-62
2022/01/09 10:24:08;;;;;;;17.00;6.63;;;23.20;65.20;;;;;;4945745;28;97549;-63
2022/01/09 10:26:47;;;;;;;15.50;7.32;;;23.10;65.20;;;;;;4941920;28;97375;-63
2022/01/09 10:29:20;;;;;;;14.48;6.95;;;23.10;65.20;;;;;;4946622;28;95967;-63
2022/01/09 10:31:51;;;;;;;14.07;7.05;;;23.10;65.30;;;;;;4941573;28;98456;-63
2022/01/09 10:34:22;;;;;;;15.93;6.63;;;23.00;65.20;;;;;;4949988;28;96035;-63
2022/01/09 10:36:55;;;;;;;17.52;8.48;;;23.00;65.30;;;;;;4949903;28;95766;-63
2022/01/09 10:39:27;;;;;;;17.10;7.85;;;23.00;65.30;;;;;;4963626;28;96323;-62
2022/01/09 10:41:59;;;;;;;17.42;7.93;;;23.00;65.40;;;;;;4947964;28;95371;-62
2022/01/09 10:44:35;;;;;;;18.80;7.85;;;22.90;65.50;;;;;;4947893;28;96118;-63
2022/01/09 10:47:10;;;;;;;19.48;7.10;;;22.90;65.50;;;;;;4940698;28;97371;-62
2022/01/09 10:49:43;;;;;;;15.40;7.50;;;22.90;65.60;;;;;;4948067;28;95293;-62
2022/01/09 10:52:27;;;;;;;14.82;7.32;;;22.90;65.70;;;;;;4949155;28;96039;-63
2022/01/09 10:55:09;;;;;;;15.25;7.57;;;22.80;65.80;;;;;;4948962;28;96455;-63
2022/01/09 10:57:42;;;;;;;13.30;6.32;;;22.80;65.90;;;;;;4948006;28;95550;-61
2022/01/09 11:00:17;;;;;;;15.07;7.38;;;22.80;65.90;;;;;;4949127;28;95779;-62
2022/01/09 11:02:51;;;;;;;13.75;6.63;;;22.70;65.90;;;;;;4952326;28;95931;-65
2022/01/09 11:05:23;;;;;;;17.55;7.72;;;22.70;65.90;;;;;;4946438;28;95703;-63
2022/01/09 11:07:55;;;;;;;17.20;7.72;;;22.60;66.00;;;;;;4964278;28;95997;-63
2022/01/09 11:10:28;;;;;;;15.25;7.32;;;22.60;66.00;;;;;;4946131;28;96933;-63
2022/01/09 11:13:02;;;;;;;15.35;6.05;;;22.60;66.10;;;;;;4947876;28;95792;-64
2022/01/09 11:15:41;;;;;;;12.00;6.30;;;22.60;66.20;;;;;;4939977;28;96106;-64
2022/01/09 11:18:12;;;;;;;16.38;6.15;;;22.50;66.20;;;;;;4949850;28;95938;-64
2022/01/09 11:20:44;;;;;;;13.25;6.22;;;22.60;66.40;;;;;;4948609;28;95540;-63
2022/01/09 11:23:17;;;;;;;15.32;6.57;;;22.50;66.40;;;;;;4948559;28;97338;-63
2022/01/09 11:25:52;;;;;;;14.65;4.75;;;22.50;66.50;;;;;;4948921;28;95908;-62
2022/01/09 11:28:29;;;;;;;16.92;5.97;;;22.50;66.50;;;;;;4948640;28;96408;-62
2022/01/09 11:31:26;;;;;;;10.65;5.80;;;22.40;66.50;;;;;;4940373;28;95438;-63
2022/01/09 11:34:08;;;;;;;14.23;5.38;;;22.40;66.70;;;;;;4948909;28;95916;-63
2022/01/09 11:37:03;;;;;;;8.90;4.28;;;22.40;66.80;;;;;;4948423;28;96154;-62
2022/01/09 11:39:36;;;;;;;13.43;5.18;;;22.40;66.80;;;;;;4949159;28;95813;-63
2022/01/09 11:42:12;;;;;;;12.07;5.15;;;22.30;66.80;;;;;;4943875;28;95357;-63
2022/01/09 11:44:51;;;;;;;13.05;4.68;;;22.30;66.90;;;;;;4948288;28;96123;-63
2022/01/09 11:47:24;;;;;;;13.25;5.30;;;22.30;66.90;;;;;;4954287;28;97149;-64
2022/01/09 11:49:56;;;;;;;13.10;4.97;;;22.30;67.00;;;;;;4948100;28;95857;-63
2022/01/09 11:52:29;;;;;;;11.65;4.93;;;22.30;67.00;;;;;;4947864;28;95626;-63
2022/01/09 11:55:06;;;;;;;15.48;4.90;;;22.20;67.10;;;;;;4950167;28;95359;-59
2022/01/09 11:57:46;;;;;;;9.60;4.28;;;22.20;67.20;;;;;;4961037;28;96467;-62
2022/01/09 12:00:36;;;;;;;12.82;5.03;;;22.20;67.20;;;;;;4949965;28;96457;-62
2022/01/09 12:03:27;;;;;;;12.98;4.05;;;22.10;67.10;;;;;;4938071;28;101234;-64
2022/01/09 12:06:14;;;;;;;9.10;3.55;;;21.90;67.40;;;;;;4943628;28;96240;-63
2022/01/09 12:09:00;;;;;;;11.13;4.57;;;21.90;67.80;;;;;;4945965;28;96858;-64
2022/01/09 12:12:06;;;;;;;11.50;5.07;;;21.80;68.10;;;;;;4945949;28;96026;-64
2022/01/09 12:14:44;;;;;;;15.55;5.05;;;21.80;68.40;;;;;;4947795;28;95550;-63
2022/01/09 12:17:28;;;;;;;9.63;4.63;;;21.60;68.40;;;;;;4942564;28;96473;-65
2022/01/09 12:20:07;;;;;;;10.68;4.88;;;21.60;69.40;;;;;;4947594;28;95869;-61
2022/01/09 12:22:53;;;;;;;11.13;4.07;;;21.50;68.80;;;;;;4948655;28;96028;-63
2022/01/09 12:25:36;;;;;;;7.28;4.50;;;21.50;69.10;;;;;;4948744;28;96004;-64
2022/01/09 12:28:21;;;;;;;9.82;4.10;;;21.50;69.30;;;;;;4947739;28;95818;-61
2022/01/09 12:30:57;;;;;;;14.50;5.18;;;21.40;69.40;;;;;;4939480;28;97616;-63
2022/01/09 12:33:31;;;;;;;10.85;4.30;;;21.40;68.40;;;;;;4943333;28;96108;-61
2022/01/09 12:36:06;;;;;;;8.05;4.32;;;21.40;69.70;;;;;;4947772;28;95411;-61
2022/01/09 12:38:41;;;;;;;12.60;4.90;;;21.30;69.80;;;;;;4946969;28;95586;-63
2022/01/09 12:41:18;;;;;;;13.32;5.45;;;21.30;69.80;;;;;;4948813;28;96220;-61
2022/01/09 12:43:50;;;;;;;11.00;4.45;;;21.30;70.00;;;;;;4949136;28;95581;-64
2022/01/09 12:46:21;;;;;;;10.40;5.18;;;21.20;69.90;;;;;;4941488;28;96102;-65
2022/01/09 12:48:55;;;;;;;13.93;5.22;;;21.20;70.10;;;;;;4950886;28;96161;-61
2022/01/09 12:51:32;;;;;;;9.95;4.60;;;21.20;70.10;;;;;;4946450;28;96131;-61
2022/01/09 12:54:08;;;;;;;9.93;4.40;;;21.20;70.30;;;;;;4945873;28;96013;-63
2022/01/09 12:56:41;;;;;;;9.90;5.05;;;21.10;70.20;;;;;;4962534;28;96028;-65
2022/01/09 12:59:15;;;;;;;9.57;4.68;;;21.00;70.30;;;;;;4943089;28;95989;-64
2022/01/09 13:01:49;;;;;;;12.13;4.75;;;21.00;70.50;;;;;;4933986;28;99671;-60
2022/01/09 13:04:24;;;;;;;8.02;4.57;;;21.00;70.50;;;;;;4937576;28;95975;-63
2022/01/09 13:06:58;;;;;;;16.55;4.68;;;21.00;70.60;;;;;;4943973;28;96625;-63
2022/01/09 13:09:31;;;;;;;10.38;4.25;;;20.90;70.60;;;;;;4946598;28;95446;-62
2022/01/09 13:12:03;;;;;;;11.52;4.30;;;20.90;70.80;;;;;;4945471;28;96619;-62
2022/01/09 13:14:44;;;;;;;13.95;4.72;;;20.90;70.70;;;;;;4961443;28;95856;-64
2022/01/09 13:17:17;;;;;;;11.80;5.00;;;20.70;70.60;;;;;;4939897;28;95560;-63
2022/01/09 13:20:02;;;;;;;11.10;4.30;;;20.70;70.90;;;;;;4947029;28;95278;-64
2022/01/09 13:22:33;;;;;;;12.65;4.43;;;20.70;71.20;;;;;;4935822;28;96566;-63